Time;durP1;ratioP1;P1;durP2;ratioP2;P2;SDS_P1;SDS_P2;PMS_P1;PMS_P2;Temp;Humidity;BMP_temperature;BMP_pressure;BME280_temperature;BME280_humidity;BME280_pressure;Samples;Min_cycle;Max_cycle;Signal;HPM_P1;HPM_P2
2022/03/03 00:01:43;;;;;;;22.10;9.88;;;1.20;99.90;;;;;;5014572;28;20033;-51
2022/03/03 00:04:09;;;;;;;23.67;10.30;;;1.30;99.90;;;;;;5014494;28;20022;-50
2022/03/03 00:06:35;;;;;;;24.67;10.50;;;1.20;99.90;;;;;;5014235;28;20018;-51
2022/03/03 00:09:02;;;;;;;25.35;10.63;;;1.00;99.90;;;;;;5015163;28;20161;-51
2022/03/03 00:11:30;;;;;;;23.30;9.98;;;1.00;99.90;;;;;;5015445;28;20033;-50
2022/03/03 00:13:56;;;;;;;28.90;10.82;;;1.10;99.90;;;;;;5015761;28;20120;-49
2022/03/03 00:16:21;;;;;;;22.92;10.20;;;1.10;99.90;;;;;;5014080;28;20116;-48
2022/03/03 00:18:47;;;;;;;21.17;10.38;;;1.10;99.90;;;;;;5014072;28;20033;-47
2022/03/03 00:21:12;;;;;;;22.88;9.85;;;1.10;99.90;;;;;;5014451;28;20025;-51
2022/03/03 00:23:38;;;;;;;25.02;10.80;;;1.10;99.90;;;;;;5014081;28;20022;-52
2022/03/03 00:26:04;;;;;;;20.92;9.05;;;1.10;99.90;;;;;;5015440;28;20049;-50
2022/03/03 00:28:29;;;;;;;25.70;11.07;;;1.10;99.90;;;;;;5013990;28;20107;-51
2022/03/03 00:30:55;;;;;;;24.75;10.57;;;1.00;99.90;;;;;;5012933;28;20121;-52
2022/03/03 00:33:21;;;;;;;25.20;10.93;;;0.90;99.90;;;;;;5015140;28;20084;-52
2022/03/03 00:35:46;;;;;;;22.58;10.05;;;0.80;99.90;;;;;;5015293;28;20056;-51
2022/03/03 00:38:12;;;;;;;25.63;10.02;;;0.80;99.90;;;;;;5013709;28;20049;-47
2022/03/03 00:40:39;;;;;;;21.88;9.68;;;0.80;99.90;;;;;;5013660;28;20503;-48
2022/03/03 00:43:06;;;;;;;24.05;11.05;;;0.70;99.90;;;;;;5015007;28;20092;-48
2022/03/03 00:45:32;;;;;;;25.73;10.90;;;0.80;99.90;;;;;;5014949;28;20025;-50
2022/03/03 00:47:58;;;;;;;23.67;10.65;;;0.70;99.90;;;;;;5014878;28;20396;-48
2022/03/03 00:50:24;;;;;;;19.45;9.23;;;0.70;99.90;;;;;;5013630;28;20029;-48
2022/03/03 00:52:49;;;;;;;25.75;11.25;;;0.60;99.90;;;;;;5014769;28;20037;-48
2022/03/03 00:55:15;;;;;;;22.50;10.63;;;0.60;99.90;;;;;;5014193;28;20614;-52
2022/03/03 00:57:41;;;;;;;22.38;10.07;;;0.60;99.90;;;;;;5014989;28;20052;-48
2022/03/03 01:00:08;;;;;;;22.88;10.20;;;0.50;99.90;;;;;;5013719;28;20037;-46
2022/03/03 01:02:34;;;;;;;24.80;8.90;;;0.40;99.90;;;;;;5014531;28;20468;-51
2022/03/03 01:05:00;;;;;;;23.70;9.73;;;0.40;99.90;;;;;;5014474;28;20068;-51
2022/03/03 01:07:26;;;;;;;18.85;9.13;;;0.40;99.90;;;;;;5014063;28;20038;-49
2022/03/03 01:09:51;;;;;;;22.95;9.82;;;0.40;99.90;;;;;;5013506;28;20113;-48
2022/03/03 01:12:17;;;;;;;25.88;10.60;;;0.50;99.90;;;;;;5014423;28;20073;-49
2022/03/03 01:14:43;;;;;;;19.73;9.05;;;0.50;99.90;;;;;;5014270;28;20018;-51
2022/03/03 01:17:09;;;;;;;26.95;10.30;;;0.50;99.90;;;;;;5013060;28;20025;-50
2022/03/03 01:19:34;;;;;;;22.75;9.85;;;0.50;99.90;;;;;;5013007;28;20026;-49
2022/03/03 01:22:00;;;;;;;25.48;9.80;;;0.40;99.90;;;;;;5013349;28;20029;-51
2022/03/03 01:24:26;;;;;;;19.80;9.80;;;0.30;99.90;;;;;;5012988;28;20057;-48
2022/03/03 01:26:51;;;;;;;20.67;9.63;;;0.30;99.90;;;;;;5014179;28;20117;-47
2022/03/03 01:29:17;;;;;;;22.92;10.80;;;0.30;99.90;;;;;;5014201;28;20030;-47
2022/03/03 01:31:43;;;;;;;22.42;10.25;;;0.30;99.90;;;;;;5012877;28;20022;-47
2022/03/03 01:34:09;;;;;;;28.75;10.13;;;0.30;99.90;;;;;;5013095;28;20030;-49
2022/03/03 01:36:35;;;;;;;22.00;9.50;;;0.20;99.90;;;;;;5012662;28;20060;-49
2022/03/03 01:39:02;;;;;;;23.17;10.15;;;0.20;99.90;;;;;;5013884;28;20396;-49
2022/03/03 01:41:28;;;;;;;21.15;9.20;;;0.20;99.90;;;;;;5013684;28;20025;-49
2022/03/03 01:43:54;;;;;;;18.17;9.65;;;0.10;99.90;;;;;;5013041;28;20022;-47
2022/03/03 01:46:19;;;;;;;23.70;9.35;;;0.10;99.90;;;;;;5013876;28;20026;-51
2022/03/03 01:48:45;;;;;;;17.45;9.32;;;0.20;99.90;;;;;;5013907;28;20057;-47
2022/03/03 01:51:11;;;;;;;20.33;8.88;;;0.10;99.90;;;;;;5013773;28;20056;-50
2022/03/03 01:53:38;;;;;;;26.77;10.02;;;0.00;99.90;;;;;;5012474;28;20037;-51
2022/03/03 01:56:03;;;;;;;21.98;9.90;;;0.00;99.90;;;;;;5012764;28;20028;-51
2022/03/03 01:58:29;;;;;;;20.98;8.77;;;0.00;99.90;;;;;;5012445;28;20026;-54
2022/03/03 02:00:55;;;;;;;24.45;10.07;;;0.00;99.90;;;;;;5012427;28;20021;-53
2022/03/03 02:03:20;;;;;;;22.63;10.45;;;0.00;99.90;;;;;;5013755;28;20102;-47
2022/03/03 02:05:46;;;;;;;21.85;9.38;;;-0.10;99.90;;;;;;5012646;28;20033;-47
2022/03/03 02:08:13;;;;;;;23.83;9.57;;;0.00;99.90;;;;;;5013734;28;20029;-49
2022/03/03 02:10:39;;;;;;;19.48;9.57;;;0.00;99.90;;;;;;5012323;28;20030;-48
2022/03/03 02:13:05;;;;;;;22.92;10.13;;;0.00;99.90;;;;;;5013484;28;20088;-54
2022/03/03 02:15:31;;;;;;;25.55;9.32;;;0.00;99.90;;;;;;5012246;28;20053;-49
2022/03/03 02:17:56;;;;;;;22.10;9.57;;;-0.10;99.90;;;;;;5012155;28;20064;-47
2022/03/03 02:20:23;;;;;;;22.17;9.77;;;-0.10;99.90;;;;;;5012213;28;20072;-49
2022/03/03 02:22:51;;;;;;;18.90;9.13;;;-0.20;99.90;;;;;;5013548;28;20076;-50
2022/03/03 02:25:17;;;;;;;21.77;9.18;;;-0.30;99.90;;;;;;5012087;28;20053;-48
2022/03/03 02:27:44;;;;;;;20.27;8.93;;;-0.30;99.90;;;;;;5012090;28;20034;-52
2022/03/03 02:30:11;;;;;;;21.67;9.38;;;-0.30;99.90;;;;;;5012235;28;20026;-47
2022/03/03 02:32:37;;;;;;;21.13;10.23;;;-0.30;99.90;;;;;;5013543;28;20022;-48
2022/03/03 02:35:03;;;;;;;23.73;9.02;;;-0.30;99.90;;;;;;5013332;28;20022;-47
2022/03/03 02:37:40;;;;;;;25.27;9.98;;;-0.40;99.90;;;;;;5013232;28;20033;-48
2022/03/03 02:40:09;;;;;;;17.73;8.60;;;-0.40;99.90;;;;;;5012055;28;20030;-47
2022/03/03 02:42:35;;;;;;;19.10;9.30;;;-0.30;99.90;;;;;;5012028;28;20022;-47
2022/03/03 02:45:04;;;;;;;19.45;8.20;;;-0.40;99.90;;;;;;5013149;28;20029;-49
2022/03/03 02:47:30;;;;;;;18.75;8.68;;;-0.40;99.90;;;;;;5012305;28;20033;-48
2022/03/03 02:49:57;;;;;;;23.17;9.73;;;-0.40;99.90;;;;;;5013236;28;20029;-47
2022/03/03 02:52:23;;;;;;;18.70;9.15;;;-0.40;99.90;;;;;;5013249;28;20063;-48
2022/03/03 02:54:49;;;;;;;21.45;9.35;;;-0.40;99.90;;;;;;5015323;28;20061;-48
2022/03/03 02:59:59;;;;;;;25.15;9.63;;;-0.40;99.90;;;;;;5017402;28;20032;-49
2022/03/03 03:02:24;;;;;;;23.60;9.65;;;-0.50;99.90;;;;;;5017119;28;20380;-48
2022/03/03 03:04:50;;;;;;;25.95;10.38;;;-0.60;99.90;;;;;;5016695;28;20018;-49
2022/03/03 03:07:16;;;;;;;21.90;9.52;;;-0.60;99.90;;;;;;5016673;28;20076;-47
2022/03/03 03:09:41;;;;;;;23.02;8.77;;;-0.60;99.90;;;;;;5016774;28;20022;-49
2022/03/03 03:12:08;;;;;;;26.30;9.07;;;-0.60;99.90;;;;;;5017169;28;20057;-47
2022/03/03 03:14:34;;;;;;;22.52;9.45;;;-0.50;99.90;;;;;;5016841;28;20058;-48
2022/03/03 03:17:01;;;;;;;17.58;8.65;;;-0.50;99.90;;;;;;5015343;28;20026;-48
2022/03/03 03:19:26;;;;;;;25.13;8.25;;;-0.50;99.90;;;;;;5016456;28;20108;-48
2022/03/03 03:21:52;;;;;;;17.13;8.95;;;-0.60;99.90;;;;;;5015241;28;20109;-48
2022/03/03 03:24:17;;;;;;;28.42;9.98;;;-0.80;99.90;;;;;;5016447;28;20021;-51
2022/03/03 03:26:43;;;;;;;24.48;9.30;;;-0.70;99.90;;;;;;5015277;28;20472;-51
2022/03/03 03:29:09;;;;;;;20.85;9.10;;;-0.80;99.90;;;;;;5016582;28;20029;-47
2022/03/03 03:31:34;;;;;;;22.48;9.23;;;-0.80;99.90;;;;;;5015143;28;20028;-50
2022/03/03 03:34:00;;;;;;;20.75;9.02;;;-0.70;99.90;;;;;;5016130;28;20030;-48
2022/03/03 03:36:26;;;;;;;23.25;9.02;;;-0.70;99.90;;;;;;5016211;28;20027;-52
2022/03/03 03:38:51;;;;;;;19.30;9.70;;;-0.70;99.90;;;;;;5016640;28;20034;-50
2022/03/03 03:41:17;;;;;;;23.75;10.38;;;-0.70;99.90;;;;;;5016063;28;20018;-52
2022/03/03 03:43:42;;;;;;;22.00;8.73;;;-0.70;99.90;;;;;;5015600;28;20030;-48
2022/03/03 03:46:08;;;;;;;18.20;9.70;;;-0.70;99.90;;;;;;5014718;28;20077;-49
2022/03/03 03:48:34;;;;;;;27.58;12.07;;;-0.60;99.90;;;;;;5014996;28;20044;-53
2022/03/03 03:51:00;;;;;;;24.60;9.73;;;-0.60;99.90;;;;;;5015886;28;20093;-47
2022/03/03 03:53:25;;;;;;;24.70;9.68;;;-0.60;99.90;;;;;;5016174;28;20033;-52
2022/03/03 03:55:51;;;;;;;25.55;10.10;;;-0.50;99.90;;;;;;5014509;28;20061;-51
2022/03/03 03:58:17;;;;;;;25.55;9.77;;;-0.60;99.90;;;;;;5015774;28;20049;-52
2022/03/03 04:00:42;;;;;;;25.58;9.82;;;-0.80;99.90;;;;;;5015652;28;20033;-47
2022/03/03 04:03:08;;;;;;;19.80;8.93;;;-0.80;99.90;;;;;;5014764;28;20025;-47
2022/03/03 04:05:35;;;;;;;22.98;9.48;;;-0.80;99.90;;;;;;5014589;28;20022;-48
2022/03/03 04:08:01;;;;;;;22.90;9.30;;;-0.80;99.90;;;;;;5014416;28;20022;-50
2022/03/03 04:10:28;;;;;;;18.92;9.25;;;-0.80;99.90;;;;;;5015846;28;20030;-50
2022/03/03 04:12:56;;;;;;;24.70;9.02;;;-0.80;99.90;;;;;;5015424;28;20044;-50
2022/03/03 04:15:22;;;;;;;22.35;10.35;;;-0.80;99.90;;;;;;5014159;28;20051;-48
2022/03/03 04:17:48;;;;;;;23.08;11.48;;;-0.70;99.90;;;;;;5014159;28;20025;-50
2022/03/03 04:20:14;;;;;;;26.95;11.25;;;-0.80;99.90;;;;;;5015345;28;20044;-51
2022/03/03 04:22:41;;;;;;;27.58;10.95;;;-0.80;99.90;;;;;;5013958;28;20022;-53
2022/03/03 04:25:10;;;;;;;23.52;11.05;;;-0.80;99.90;;;;;;5013708;28;20026;-48
2022/03/03 04:27:39;;;;;;;28.75;12.00;;;-0.80;99.90;;;;;;5013673;28;20037;-51
2022/03/03 04:30:08;;;;;;;26.55;10.68;;;-0.80;99.90;;;;;;5014002;28;20018;-48
2022/03/03 04:32:35;;;;;;;29.92;12.13;;;-0.90;99.90;;;;;;5013867;28;20022;-49
2022/03/03 04:35:01;;;;;;;28.05;11.40;;;-0.90;99.90;;;;;;5015300;28;20080;-48
2022/03/03 04:37:27;;;;;;;24.95;10.05;;;-0.80;99.90;;;;;;5015288;28;20046;-47
2022/03/03 04:39:53;;;;;;;23.23;10.10;;;-0.80;99.90;;;;;;5015593;28;20017;-53
2022/03/03 04:42:18;;;;;;;27.10;10.63;;;-0.80;99.90;;;;;;5015600;28;20033;-49
2022/03/03 04:44:44;;;;;;;22.63;9.50;;;-0.80;99.90;;;;;;5014834;28;20022;-47
2022/03/03 04:47:09;;;;;;;22.02;9.70;;;-0.80;99.90;;;;;;5014939;28;20033;-47
2022/03/03 04:49:35;;;;;;;28.65;10.13;;;-0.90;99.90;;;;;;5014753;28;20018;-49
2022/03/03 04:52:01;;;;;;;26.73;9.70;;;-0.90;99.90;;;;;;5014805;28;20033;-48
2022/03/03 04:54:26;;;;;;;22.90;9.98;;;-1.10;99.90;;;;;;5014683;28;20049;-48
2022/03/03 04:56:54;;;;;;;26.00;10.05;;;-1.10;99.90;;;;;;5015019;28;20025;-47
2022/03/03 04:59:20;;;;;;;21.83;10.55;;;-1.20;99.90;;;;;;5015341;28;20032;-50
2022/03/03 05:01:45;;;;;;;17.20;8.80;;;-1.30;99.90;;;;;;5013458;28;20120;-50
2022/03/03 05:04:11;;;;;;;17.75;8.30;;;-1.30;99.90;;;;;;5014744;28;20022;-50
2022/03/03 05:06:37;;;;;;;20.55;9.30;;;-1.20;99.90;;;;;;5014520;28;20434;-47
2022/03/03 05:09:02;;;;;;;20.92;9.60;;;-1.10;99.90;;;;;;5014480;28;20033;-51
2022/03/03 05:11:28;;;;;;;20.42;9.25;;;-1.20;99.90;;;;;;5014649;28;20029;-51
2022/03/03 05:13:54;;;;;;;21.17;9.15;;;-1.10;99.90;;;;;;5013463;28;20163;-48
2022/03/03 05:16:20;;;;;;;18.85;9.02;;;-1.10;99.90;;;;;;5013779;28;20061;-48
2022/03/03 05:18:45;;;;;;;21.30;9.68;;;-1.10;99.90;;;;;;5014262;28;20109;-48
2022/03/03 05:21:11;;;;;;;19.17;9.35;;;-1.10;99.90;;;;;;5013937;28;20022;-49
2022/03/03 05:23:37;;;;;;;22.85;9.95;;;-1.20;99.90;;;;;;5014239;28;20025;-48
2022/03/03 05:26:02;;;;;;;20.33;9.25;;;-1.30;99.90;;;;;;5012856;28;20049;-49
2022/03/03 05:28:28;;;;;;;22.38;9.68;;;-1.40;99.90;;;;;;5012941;28;20033;-50
2022/03/03 05:30:54;;;;;;;24.13;9.60;;;-1.30;99.90;;;;;;5014380;28;20432;-51
2022/03/03 05:33:20;;;;;;;22.88;9.18;;;-1.20;99.90;;;;;;5012835;28;20054;-53
2022/03/03 05:35:47;;;;;;;26.13;8.55;;;-1.10;99.90;;;;;;5013935;28;20022;-52
2022/03/03 05:38:13;;;;;;;20.40;8.20;;;-1.30;99.90;;;;;;5014354;28;20036;-54
2022/03/03 05:40:38;;;;;;;23.08;8.95;;;-1.30;99.90;;;;;;5013942;28;20014;-48
2022/03/03 05:43:04;;;;;;;21.13;9.55;;;-1.20;99.90;;;;;;5013922;28;20065;-48
2022/03/03 05:45:32;;;;;;;21.98;8.80;;;-1.20;99.90;;;;;;5014409;28;20109;-50
2022/03/03 05:47:59;;;;;;;20.23;9.82;;;-1.10;99.90;;;;;;5013879;28;20041;-49
2022/03/03 05:54:05;;;;;;;20.67;8.48;;;-1.00;99.90;;;;;;5014125;28;20033;-53
2022/03/03 05:56:35;;;;;;;22.45;8.73;;;-0.80;99.90;;;;;;5013708;28;20030;-49
2022/03/03 05:59:06;;;;;;;24.52;9.23;;;-0.80;99.90;;;;;;5013623;28;20026;-50
2022/03/03 06:01:35;;;;;;;24.63;9.48;;;-1.00;99.90;;;;;;5014032;28;20025;-51
2022/03/03 06:04:01;;;;;;;18.35;8.45;;;-1.00;99.90;;;;;;5012630;28;20026;-50
2022/03/03 06:06:28;;;;;;;22.27;9.93;;;-1.00;99.90;;;;;;5013587;28;20024;-52
2022/03/03 06:09:15;;;;;;;24.73;9.95;;;-0.90;99.90;;;;;;5012376;28;20030;-49
2022/03/03 06:12:06;;;;;;;24.00;8.88;;;-0.70;99.90;;;;;;5013653;28;20022;-50
2022/03/03 06:14:40;;;;;;;16.70;8.98;;;-0.70;99.90;;;;;;5013903;28;20084;-56
2022/03/03 06:17:07;;;;;;;19.98;8.80;;;-0.60;99.90;;;;;;5013653;28;20025;-52
2022/03/03 06:19:39;;;;;;;20.23;8.52;;;-0.50;99.90;;;;;;5012208;28;20464;-51
2022/03/03 06:22:06;;;;;;;22.27;9.95;;;-0.40;99.90;;;;;;5013515;28;20392;-53
2022/03/03 06:24:33;;;;;;;17.95;9.23;;;-0.30;99.90;;;;;;5012236;28;20030;-51
2022/03/03 06:26:58;;;;;;;15.95;8.90;;;-0.20;99.90;;;;;;5013332;28;20029;-52
2022/03/03 06:29:24;;;;;;;25.23;9.35;;;-0.10;99.90;;;;;;5016000;28;20084;-51
2022/03/03 06:31:49;;;;;;;23.00;9.93;;;-0.10;99.90;;;;;;5016166;28;20033;-50
2022/03/03 06:34:15;;;;;;;22.45;10.00;;;0.10;99.90;;;;;;5016092;28;20053;-49
2022/03/03 06:36:41;;;;;;;27.70;10.38;;;0.60;99.90;;;;;;5016044;28;20029;-49
2022/03/03 06:39:06;;;;;;;24.73;9.10;;;1.40;99.90;;;;;;5017189;28;20038;-51
2022/03/03 06:41:32;;;;;;;21.55;10.05;;;2.20;99.90;;;;;;5015921;28;20109;-51
2022/03/03 06:43:57;;;;;;;21.30;9.85;;;2.40;99.90;;;;;;5017219;28;20551;-55
2022/03/03 06:46:23;;;;;;;25.77;11.32;;;3.30;99.90;;;;;;5017331;28;20096;-55
2022/03/03 06:48:49;;;;;;;22.30;9.98;;;4.10;99.90;;;;;;5016038;28;20052;-50
2022/03/03 06:51:15;;;;;;;24.33;10.77;;;4.60;99.90;;;;;;5016174;28;20022;-51
2022/03/03 06:53:45;;;;;;;26.40;11.13;;;4.90;99.90;;;;;;5017606;28;20026;-52
2022/03/03 06:56:12;;;;;;;28.75;10.65;;;5.00;99.90;;;;;;5016843;28;20504;-51
2022/03/03 06:58:39;;;;;;;19.88;9.25;;;5.20;99.90;;;;;;5016760;28;20022;-50
2022/03/03 07:01:07;;;;;;;22.48;11.20;;;5.50;99.90;;;;;;5017250;28;20104;-52
2022/03/03 07:03:34;;;;;;;24.30;10.93;;;6.00;99.90;;;;;;5016808;28;20048;-49
2022/03/03 07:06:01;;;;;;;27.45;12.75;;;6.40;99.90;;;;;;5015772;28;20022;-49
2022/03/03 07:08:27;;;;;;;28.20;12.23;;;7.10;99.90;;;;;;5015553;28;20169;-49
2022/03/03 07:14:15;;;;;;;21.85;10.80;;;8.20;99.90;;;;;;5017071;28;20076;-48
2022/03/03 07:16:44;;;;;;;19.77;10.60;;;9.30;99.90;;;;;;5016461;28;20030;-49
2022/03/03 07:19:25;;;;;;;19.52;10.38;;;9.70;99.90;;;;;;5016755;28;20022;-47
2022/03/03 07:22:01;;;;;;;16.88;9.73;;;10.30;99.90;;;;;;5015206;28;20052;-50
2022/03/03 07:24:31;;;;;;;20.15;10.93;;;10.70;99.90;;;;;;5016031;28;20026;-52
2022/03/03 07:27:00;;;;;;;21.10;10.73;;;11.20;99.30;;;;;;5015007;28;20037;-48
2022/03/03 07:29:33;;;;;;;21.50;10.32;;;11.40;97.30;;;;;;5016393;28;20036;-49
2022/03/03 07:32:03;;;;;;;17.27;10.00;;;11.70;96.90;;;;;;5015035;28;20022;-47
2022/03/03 07:34:38;;;;;;;17.08;10.23;;;11.80;96.90;;;;;;5015884;28;20026;-53
2022/03/03 07:37:10;;;;;;;20.15;11.23;;;12.10;95.20;;;;;;5016351;28;20056;-47
2022/03/03 07:39:41;;;;;;;26.92;11.25;;;12.60;93.60;;;;;;5015699;28;20080;-49
2022/03/03 07:42:17;;;;;;;18.80;10.48;;;12.80;92.70;;;;;;5016133;28;20366;-48
2022/03/03 07:44:43;;;;;;;17.55;9.70;;;12.10;93.10;;;;;;5014854;28;20030;-50
2022/03/03 07:47:10;;;;;;;17.15;10.73;;;13.40;93.00;;;;;;5014728;28;20440;-51
2022/03/03 07:49:37;;;;;;;20.50;10.50;;;13.60;90.20;;;;;;5016045;28;20032;-52
2022/03/03 07:52:04;;;;;;;17.55;10.27;;;14.10;90.00;;;;;;5016073;28;20022;-51
2022/03/03 07:54:30;;;;;;;18.80;10.20;;;14.20;89.90;;;;;;5014943;28;20029;-50
2022/03/03 07:56:57;;;;;;;17.70;10.40;;;14.70;86.50;;;;;;5014474;28;20079;-51
2022/03/03 07:59:32;;;;;;;18.63;10.75;;;15.20;81.20;;;;;;5014905;28;20440;-51
2022/03/03 08:02:01;;;;;;;19.77;11.88;;;15.40;81.70;;;;;;5014448;28;20045;-49
2022/03/03 08:04:29;;;;;;;20.17;9.82;;;15.60;79.70;;;;;;5014852;28;20022;-53
2022/03/03 08:07:06;;;;;;;17.95;11.55;;;16.60;81.90;;;;;;5015792;28;20029;-48
2022/03/03 08:09:33;;;;;;;15.43;10.85;;;17.80;74.80;;;;;;5014723;28;20029;-52
2022/03/03 08:12:03;;;;;;;15.07;10.57;;;18.30;70.10;;;;;;5015612;28;20048;-49
2022/03/03 08:14:30;;;;;;;18.80;10.25;;;18.60;70.90;;;;;;5014408;28;20076;-49
2022/03/03 08:16:56;;;;;;;17.63;9.80;;;19.00;67.70;;;;;;5015748;28;20030;-51
2022/03/03 08:19:21;;;;;;;19.13;11.77;;;19.50;67.50;;;;;;5015267;28;20080;-49
2022/03/03 08:21:49;;;;;;;18.88;10.45;;;19.90;64.70;;;;;;5014570;28;20483;-48
2022/03/03 08:24:42;;;;;;;15.55;10.52;;;18.90;63.10;;;;;;5014189;28;20033;-50
2022/03/03 08:27:11;;;;;;;16.00;10.80;;;19.30;63.80;;;;;;5015121;28;20075;-49
2022/03/03 08:29:37;;;;;;;14.88;9.35;;;20.10;62.90;;;;;;5014023;28;20026;-48
2022/03/03 08:32:03;;;;;;;19.40;10.93;;;20.30;62.90;;;;;;5014833;28;20064;-51
2022/03/03 08:34:46;;;;;;;11.68;9.40;;;20.60;58.50;;;;;;5013749;28;20026;-46
2022/03/03 08:37:28;;;;;;;14.30;10.05;;;21.70;61.70;;;;;;5013913;28;20026;-50
2022/03/03 08:39:56;;;;;;;16.70;12.25;;;21.80;57.20;;;;;;5014958;28;20026;-47
2022/03/03 08:42:26;;;;;;;14.95;10.38;;;22.40;55.00;;;;;;5015017;28;20029;-48
2022/03/03 08:44:58;;;;;;;16.67;11.75;;;22.20;55.20;;;;;;5013788;28;20022;-46
2022/03/03 08:47:25;;;;;;;18.83;11.40;;;21.30;56.20;;;;;;5014413;28;20116;-49
2022/03/03 08:50:00;;;;;;;21.92;11.20;;;20.60;58.90;;;;;;5014884;28;20508;-47
2022/03/03 08:52:26;;;;;;;17.92;12.45;;;20.60;57.40;;;;;;5014022;28;20026;-48
2022/03/03 08:54:52;;;;;;;20.35;12.07;;;20.70;57.80;;;;;;5013812;28;20453;-50
2022/03/03 08:57:18;;;;;;;18.55;11.63;;;20.60;58.40;;;;;;5013528;28;20061;-47
2022/03/03 08:59:44;;;;;;;16.25;11.75;;;20.60;58.10;;;;;;5013325;28;20033;-49
2022/03/03 09:02:16;;;;;;;18.23;12.15;;;20.80;58.20;;;;;;5013423;28;20037;-48
2022/03/03 09:04:46;;;;;;;15.65;11.13;;;21.10;57.40;;;;;;5014860;28;20041;-47
2022/03/03 09:07:12;;;;;;;20.83;11.65;;;20.90;58.10;;;;;;5013357;28;20022;-48
2022/03/03 09:09:37;;;;;;;19.23;11.57;;;21.20;57.90;;;;;;5014558;28;20072;-50
2022/03/03 09:12:04;;;;;;;14.32;11.55;;;21.50;56.30;;;;;;5013883;28;20387;-47
2022/03/03 09:14:30;;;;;;;15.40;12.07;;;21.70;57.00;;;;;;5013352;28;20164;-47
2022/03/03 09:16:56;;;;;;;20.17;13.20;;;21.50;55.40;;;;;;5013308;28;20048;-47
2022/03/03 09:19:22;;;;;;;17.15;11.93;;;21.30;55.70;;;;;;5013082;28;20116;-51
2022/03/03 09:21:48;;;;;;;20.80;11.93;;;21.70;56.30;;;;;;5014328;28;20153;-52
2022/03/03 09:24:13;;;;;;;15.55;11.30;;;22.60;55.80;;;;;;5014239;28;20101;-50
2022/03/03 09:26:39;;;;;;;15.10;11.20;;;22.40;54.70;;;;;;5014231;28;20095;-50
2022/03/03 09:29:05;;;;;;;21.88;14.48;;;22.70;55.00;;;;;;5013829;28;20375;-50
2022/03/03 09:31:31;;;;;;;18.90;11.35;;;22.80;53.70;;;;;;5013802;28;20036;-51
2022/03/03 09:33:57;;;;;;;17.05;10.82;;;22.60;53.60;;;;;;5013162;28;20026;-51
2022/03/03 09:36:22;;;;;;;16.95;11.07;;;23.00;55.60;;;;;;5014149;28;20029;-50
2022/03/03 09:38:48;;;;;;;16.30;11.13;;;23.30;53.50;;;;;;5014017;28;20076;-47
2022/03/03 09:41:14;;;;;;;15.52;11.40;;;24.30;53.30;;;;;;5012726;28;20495;-47
2022/03/03 09:43:44;;;;;;;17.42;12.45;;;24.20;50.70;;;;;;5013992;28;20028;-54
2022/03/03 09:46:11;;;;;;;21.48;12.27;;;23.00;51.40;;;;;;5012590;28;20041;-51
2022/03/03 09:48:36;;;;;;;24.42;11.98;;;23.20;52.10;;;;;;5012625;28;20060;-48
2022/03/03 09:51:03;;;;;;;16.48;12.07;;;23.00;52.20;;;;;;5012647;28;20030;-50
2022/03/03 09:53:28;;;;;;;15.73;12.30;;;23.20;52.20;;;;;;5013849;28;20022;-50
2022/03/03 09:55:54;;;;;;;18.67;12.88;;;23.20;51.60;;;;;;5012374;28;20030;-47
2022/03/03 09:58:20;;;;;;;18.83;12.55;;;22.20;52.00;;;;;;5012973;28;20033;-50
2022/03/03 10:00:46;;;;;;;18.63;12.23;;;22.50;51.80;;;;;;5012552;28;20045;-48
2022/03/03 10:03:16;;;;;;;18.52;13.00;;;22.90;53.40;;;;;;5013511;28;20076;-52
2022/03/03 10:05:42;;;;;;;16.67;11.40;;;23.00;51.10;;;;;;5013536;28;20018;-48
2022/03/03 10:08:18;;;;;;;15.15;12.25;;;23.50;51.20;;;;;;5012306;28;20099;-49
2022/03/03 10:10:46;;;;;;;17.48;12.02;;;22.40;50.30;;;;;;5013304;28;20121;-49
2022/03/03 10:13:16;;;;;;;19.58;11.43;;;21.90;52.50;;;;;;5012261;28;20061;-49
2022/03/03 10:15:44;;;;;;;23.10;13.05;;;21.50;53.60;;;;;;5012345;28;20113;-52
2022/03/03 10:18:13;;;;;;;26.85;15.82;;;21.10;53.00;;;;;;5012520;28;20097;-48
2022/03/03 10:20:44;;;;;;;17.98;11.23;;;20.30;52.90;;;;;;5013540;28;20024;-48
2022/03/03 10:23:10;;;;;;;;;;;19.70;54.50;;;;;;5012756;28;20029;-48
2022/03/03 10:25:42;;;;;;;16.58;11.98;;;19.40;55.40;;;;;;5013696;28;19905;-48
2022/03/03 10:28:15;;;;;;;17.67;11.80;;;19.00;55.60;;;;;;5014231;28;20038;-48
2022/03/03 10:30:53;;;;;;;21.80;11.52;;;18.70;56.70;;;;;;5012530;28;20061;-50
2022/03/03 10:33:22;;;;;;;19.80;11.07;;;18.90;55.50;;;;;;5012234;28;20392;-50
2022/03/03 10:36:08;;;;;;;19.23;10.52;;;18.30;55.30;;;;;;5012214;28;20396;-49
2022/03/03 10:38:43;;;;;;;17.45;11.25;;;17.30;56.90;;;;;;5013017;28;20026;-48
2022/03/03 10:41:37;;;;;;;24.00;11.60;;;16.90;56.00;;;;;;5013317;28;20049;-48
2022/03/03 10:44:20;;;;;;;20.77;10.68;;;16.40;57.30;;;;;;5013520;28;20018;-52
2022/03/03 10:47:09;;;;;;;15.70;9.70;;;16.10;58.30;;;;;;5012121;28;20026;-48
2022/03/03 10:49:44;;;;;;;16.63;10.32;;;16.10;59.80;;;;;;5012420;28;20053;-47
2022/03/03 10:52:21;;;;;;;20.25;11.30;;;16.00;59.10;;;;;;5012295;28;20172;-48
2022/03/03 10:54:50;;;;;;;16.83;10.00;;;16.00;60.10;;;;;;5011995;28;20063;-49
2022/03/03 10:57:40;;;;;;;14.00;8.57;;;15.90;59.10;;;;;;5013263;28;20022;-46
2022/03/03 11:00:21;;;;;;;13.43;9.77;;;15.20;59.20;;;;;;5012038;28;20109;-49
2022/03/03 11:02:49;;;;;;;26.35;9.65;;;14.50;59.20;;;;;;5013325;28;20077;-47
2022/03/03 11:05:16;;;;;;;21.05;10.50;;;13.90;61.10;;;;;;5013625;28;20037;-48
2022/03/03 11:07:44;;;;;;;19.77;9.38;;;13.60;62.50;;;;;;5013132;28;20076;-51
2022/03/03 11:10:22;;;;;;;16.98;9.75;;;13.80;62.40;;;;;;5011821;28;20614;-49
2022/03/03 11:12:49;;;;;;;16.05;9.32;;;13.60;64.50;;;;;;5011901;28;20026;-51
2022/03/03 11:15:17;;;;;;;15.20;9.30;;;13.70;64.90;;;;;;5014625;28;20052;-47
2022/03/03 11:17:43;;;;;;;16.17;7.90;;;13.90;64.50;;;;;;5016558;28;20029;-49
2022/03/03 11:20:15;;;;;;;12.27;8.35;;;14.10;63.10;;;;;;5015603;28;20049;-49
2022/03/03 11:22:41;;;;;;;;;;;14.10;60.80;;;;;;5015777;28;20033;-48
2022/03/03 11:25:31;;;;;;;12.13;7.00;;;14.00;62.60;;;;;;5015552;28;19916;-49
2022/03/03 11:28:03;;;;;;;12.90;7.78;;;14.10;62.30;;;;;;5015561;28;20034;-46
2022/03/03 11:30:30;;;;;;;16.25;7.68;;;14.00;60.10;;;;;;5015815;28;20057;-49
2022/03/03 11:33:28;;;;;;;19.58;8.75;;;13.70;63.50;;;;;;5016608;28;20097;-48
2022/03/03 11:36:06;;;;;;;14.57;8.70;;;13.70;61.60;;;;;;5016582;28;20543;-51
2022/03/03 11:38:52;;;;;;;16.40;8.82;;;13.50;61.30;;;;;;5015309;28;20097;-52
2022/03/03 11:41:20;;;;;;;15.38;8.45;;;12.90;60.40;;;;;;5015385;28;20022;-45
2022/03/03 11:44:15;;;;;;;22.23;8.50;;;12.30;59.90;;;;;;5016116;28;20037;-47
2022/03/03 11:46:49;;;;;;;15.48;8.55;;;11.90;60.00;;;;;;5003594;28;20037;-46
2022/03/03 11:49:24;;;;;;;14.23;8.82;;;11.90;62.60;;;;;;5016078;28;20507;-49
2022/03/03 11:52:08;;;;;;;16.23;8.30;;;11.70;62.90;;;;;;5016299;28;20037;-49
2022/03/03 11:54:34;;;;;;;18.73;8.13;;;11.70;65.20;;;;;;5015805;28;20030;-46
2022/03/03 11:57:08;;;;;;;17.17;8.52;;;11.90;62.10;;;;;;5014825;28;20100;-47
2022/03/03 11:59:35;;;;;;;17.80;9.35;;;11.70;62.00;;;;;;5014462;28;20046;-50
2022/03/03 12:02:01;;;;;;;18.23;8.75;;;11.70;62.80;;;;;;5014826;28;20018;-47
2022/03/03 12:04:27;;;;;;;16.10;7.90;;;11.90;61.50;;;;;;5015987;28;20084;-46
2022/03/03 12:06:54;;;;;;;18.05;8.70;;;12.10;65.90;;;;;;5014390;28;20081;-46
2022/03/03 12:09:26;;;;;;;13.38;7.43;;;12.40;64.70;;;;;;5015657;28;20049;-48
2022/03/03 12:12:09;;;;;;;;;;;12.20;65.70;;;;;;5016527;28;20380;-48
2022/03/03 12:14:39;;;;;;;15.05;8.75;;;12.20;62.80;;;;;;5014639;28;19905;-47
2022/03/03 12:17:33;;;;;;;16.35;8.85;;;12.30;63.80;;;;;;5014773;28;20077;-52
2022/03/03 12:20:23;;;;;;;19.20;8.20;;;12.30;61.00;;;;;;5015643;28;20057;-46
2022/03/03 12:23:09;;;;;;;19.25;9.35;;;11.90;60.40;;;;;;5015305;28;20488;-47
2022/03/03 12:25:50;;;;;;;14.50;7.03;;;11.60;60.00;;;;;;5013343;28;20020;-47
2022/03/03 12:28:35;;;;;;;16.17;7.57;;;11.40;58.40;;;;;;5015243;28;20038;-47
2022/03/03 12:31:16;;;;;;;13.65;7.60;;;11.40;58.70;;;;;;5015761;28;20084;-47
2022/03/03 12:34:05;;;;;;;15.30;7.70;;;11.30;59.00;;;;;;5015262;28;20056;-48
2022/03/03 12:36:36;;;;;;;13.30;7.55;;;11.30;59.90;;;;;;5014140;28;20034;-48
2022/03/03 12:39:04;;;;;;;15.75;8.52;;;11.30;59.40;;;;;;5013899;28;20030;-48
2022/03/03 12:41:32;;;;;;;15.50;8.18;;;11.10;59.50;;;;;;5013794;28;20022;-46
2022/03/03 12:44:11;;;;;;;14.35;7.40;;;11.10;59.90;;;;;;5014456;28;20074;-48
2022/03/03 12:46:37;;;;;;;13.07;6.93;;;11.30;61.40;;;;;;5015029;28;20022;-47
2022/03/03 12:49:08;;;;;;;13.15;7.65;;;11.50;59.10;;;;;;5013929;28;20074;-46
2022/03/03 12:51:40;;;;;;;13.20;7.20;;;11.50;59.80;;;;;;5015017;28;20484;-47
2022/03/03 12:54:07;;;;;;;15.45;7.57;;;11.40;59.20;;;;;;5013665;28;20029;-47